createdAt,value
2019-03-12T00:02:15.473Z,101541.89
2019-03-12T00:04:42.408Z,101539.34
2019-03-12T00:07:09.362Z,101547.43
2019-03-12T00:09:36.324Z,101544.80
2019-03-12T00:12:03.385Z,101541.81
2019-03-12T00:14:30.285Z,101538.36
2019-03-12T00:16:57.233Z,101548.18
2019-03-12T00:19:24.262Z,101545.98
2019-03-12T00:21:51.225Z,101543.38
2019-03-12T00:24:18.153Z,101551.63
2019-03-12T00:26:45.151Z,101561.52
2019-03-12T00:29:12.061Z,101556.09
2019-03-12T00:31:39.007Z,101546.72
2019-03-12T00:34:06.018Z,101547.06
2019-03-12T00:36:32.964Z,101549.65
2019-03-12T00:38:59.899Z,101548.05
2019-03-12T00:41:26.897Z,101533.64
2019-03-12T00:43:53.827Z,101546.12
2019-03-12T00:46:20.866Z,101548.23
2019-03-12T00:48:47.825Z,101545.16
2019-03-12T00:51:14.775Z,101548.66
2019-03-12T00:53:41.737Z,101550.20
2019-03-12T00:56:08.730Z,101557.45
2019-03-12T00:58:35.647Z,101562.29
2019-03-12T01:01:02.733Z,101562.29
2019-03-12T01:03:29.640Z,101561.56
2019-03-12T01:05:56.921Z,101563.05
2019-03-12T01:08:23.876Z,101565.31
2019-03-12T01:10:50.798Z,101569.73
2019-03-12T01:13:17.822Z,101568.97
2019-03-12T01:15:44.851Z,101571.65
2019-03-12T01:18:13.806Z,101568.20
2019-03-12T01:20:40.627Z,101574.61
2019-03-12T01:23:07.650Z,101562.43
2019-03-12T01:25:34.578Z,101564.36
2019-03-12T01:28:01.547Z,101564.73
2019-03-12T01:30:28.523Z,101554.72
2019-03-12T01:32:55.514Z,101544.65
2019-03-12T01:35:22.438Z,101546.70
2019-03-12T01:37:49.385Z,101555.17
2019-03-12T01:40:16.393Z,101550.20
2019-03-12T01:42:43.383Z,101548.91
2019-03-12T01:45:11.738Z,101544.98
2019-03-12T01:47:38.720Z,101539.42
2019-03-12T01:50:06.253Z,101534.77
2019-03-12T01:52:33.218Z,101530.36
2019-03-12T01:55:00.490Z,101536.45
2019-03-12T01:57:27.448Z,101530.25
2019-03-12T01:59:54.359Z,101521.52
2019-03-12T02:02:21.299Z,101519.22
2019-03-12T02:04:48.200Z,101512.86
2019-03-12T02:07:15.145Z,101510.03
2019-03-12T02:09:42.070Z,101503.73
2019-03-12T02:12:09.012Z,101500.20
2019-03-12T02:14:36.780Z,101495.98
2019-03-12T02:17:03.755Z,101498.31
2019-03-12T02:19:30.667Z,101493.14
2019-03-12T02:21:57.591Z,101497.02
2019-03-12T02:24:24.531Z,101491.70
2019-03-12T02:26:51.439Z,101489.27
2019-03-12T02:29:18.393Z,101492.66
2019-03-12T02:31:45.316Z,101499.02
2019-03-12T02:34:12.269Z,101486.14
2019-03-12T02:36:39.169Z,101492.49
2019-03-12T02:39:07.354Z,101481.67
2019-03-12T02:41:34.294Z,101480.97
2019-03-12T02:44:01.246Z,101491.57
2019-03-12T02:46:28.197Z,101482.59
2019-03-12T02:48:55.144Z,101479.19
2019-03-12T02:51:22.062Z,101472.56
2019-03-12T02:53:48.999Z,101470.88
2019-03-12T02:56:15.957Z,101475.03
2019-03-12T02:58:42.893Z,101470.52
2019-03-12T03:01:09.804Z,101467.13
2019-03-12T03:03:36.745Z,101466.20
2019-03-12T03:06:11.079Z,101472.34
2019-03-12T03:08:38.012Z,101460.12
2019-03-12T03:11:04.911Z,101463.55
2019-03-12T03:13:31.862Z,101456.82
2019-03-12T03:15:58.800Z,101459.83
2019-03-12T03:18:25.757Z,101448.43
2019-03-12T03:20:52.684Z,101444.06
2019-03-12T03:23:19.623Z,101447.50
2019-03-12T03:25:46.526Z,101443.14
2019-03-12T03:28:13.476Z,101439.21
2019-03-12T03:30:40.393Z,101441.25
2019-03-12T03:33:07.339Z,101436.83
2019-03-12T03:35:34.257Z,101441.23
2019-03-12T03:38:01.205Z,101440.38
2019-03-12T03:40:28.142Z,101438.66
2019-03-12T03:42:55.073Z,101426.91
2019-03-12T03:45:21.996Z,101431.66
2019-03-12T03:47:48.909Z,101430.36
2019-03-12T03:50:16.059Z,101428.84
2019-03-12T03:52:42.970Z,101424.89
2019-03-12T03:55:11.977Z,101428.83
2019-03-12T03:57:38.901Z,101420.97
2019-03-12T04:00:08.335Z,101417.89
2019-03-12T04:02:35.257Z,101410.50
2019-03-12T04:05:02.356Z,101400.91
2019-03-12T04:07:29.304Z,101412.17
2019-03-12T04:09:56.230Z,101412.98
2019-03-12T04:12:23.194Z,101412.00
2019-03-12T04:14:50.169Z,101418.56
2019-03-12T04:17:17.095Z,101411.25
2019-03-12T04:19:44.045Z,101414.39
2019-03-12T04:22:10.999Z,101413.22
2019-03-12T04:24:37.972Z,101416.55
2019-03-12T04:27:04.916Z,101418.67
2019-03-12T04:29:31.882Z,101417.75
2019-03-12T04:31:58.793Z,101416.23
2019-03-12T04:34:37.465Z,101420.28
2019-03-12T04:37:04.377Z,101420.89
2019-03-12T04:39:31.379Z,101414.38
2019-03-12T04:41:58.351Z,101416.84
2019-03-12T04:44:25.308Z,101415.59
2019-03-12T04:46:52.254Z,101416.96
2019-03-12T04:49:19.219Z,101415.45
2019-03-12T04:51:46.118Z,101406.30
2019-03-12T04:54:13.072Z,101406.52
2019-03-12T04:56:40.093Z,101396.89
2019-03-12T04:59:07.076Z,101391.49
2019-03-12T05:01:33.990Z,101380.14
2019-03-12T05:04:00.959Z,101379.11
2019-03-12T05:06:27.883Z,101373.73
2019-03-12T05:08:54.853Z,101372.88
2019-03-12T05:11:21.751Z,101372.01
2019-03-12T05:14:18.108Z,101368.72
2019-03-12T05:16:45.034Z,101356.13
2019-03-12T05:19:12.010Z,101364.80
2019-03-12T05:21:38.930Z,101362.16
2019-03-12T05:24:05.875Z,101367.38
2019-03-12T05:26:32.792Z,101358.81
2019-03-12T05:28:59.737Z,101357.04
2019-03-12T05:31:26.680Z,101344.45
2019-03-12T05:33:53.593Z,101346.84
2019-03-12T05:36:20.535Z,101330.05
2019-03-12T05:38:47.450Z,101321.92
2019-03-12T05:41:14.472Z,101317.65
2019-03-12T05:43:41.412Z,101313.20
2019-03-12T05:46:08.387Z,101314.67
2019-03-12T05:48:35.304Z,101317.03
2019-03-12T05:51:02.315Z,101311.05
2019-03-12T05:53:48.070Z,101305.64
2019-03-12T05:56:15.151Z,101303.73
2019-03-12T05:58:42.065Z,101294.53
2019-03-12T06:01:09.227Z,101304.59
2019-03-12T06:03:36.188Z,101296.44
2019-03-12T06:06:03.109Z,101298.13
2019-03-12T06:08:30.085Z,101299.08
2019-03-12T06:10:57.141Z,101290.42
2019-03-12T06:13:24.115Z,101289.26
2019-03-12T06:16:01.909Z,101282.80
2019-03-12T06:18:45.860Z,101277.53
2019-03-12T06:21:13.316Z,101275.39
2019-03-12T06:23:40.234Z,101266.72
2019-03-12T06:26:07.195Z,101261.64
2019-03-12T06:28:34.141Z,101250.39
2019-03-12T06:31:16.171Z,101255.66
2019-03-12T06:34:05.254Z,101257.84
2019-03-12T06:36:36.525Z,101246.34
2019-03-12T06:39:19.370Z,101243.48
2019-03-12T06:41:53.954Z,101238.31
2019-03-12T06:44:32.278Z,101237.37
2019-03-12T06:47:10.055Z,101234.00
2019-03-12T06:49:54.130Z,101233.95
2019-03-12T06:52:40.726Z,101225.81
2019-03-12T06:55:23.230Z,101225.09
2019-03-12T06:58:34.214Z,101224.95
2019-03-12T07:01:20.821Z,101210.50
2019-03-12T07:04:10.189Z,101198.86
2019-03-12T07:06:56.782Z,101201.48
2019-03-12T07:09:45.012Z,101196.77
2019-03-12T07:12:22.665Z,101194.92
2019-03-12T07:15:05.097Z,101189.77
2019-03-12T07:18:00.796Z,101181.39
2019-03-12T07:20:50.296Z,101181.86
2019-03-12T07:23:35.615Z,101181.84
2019-03-12T07:26:21.095Z,101166.75
2019-03-12T07:29:06.121Z,101150.70
2019-03-12T07:31:39.365Z,101153.88
2019-03-12T07:34:36.758Z,101140.97
2019-03-12T07:37:20.748Z,101137.98
2019-03-12T07:40:00.308Z,101133.22
2019-03-12T07:42:41.803Z,101131.95
2019-03-12T07:45:14.360Z,101119.46
2019-03-12T07:48:00.967Z,101119.93
2019-03-12T07:50:37.502Z,101118.66
2019-03-12T07:53:22.809Z,101113.48
2019-03-12T07:56:04.552Z,101114.36
2019-03-12T07:59:09.426Z,101106.56
2019-03-12T08:01:56.021Z,101101.39
2019-03-12T08:04:43.418Z,101090.59
2019-03-12T08:07:41.430Z,101087.55
2019-03-12T08:10:26.620Z,101083.67
2019-03-12T14:15:49.123Z,100147.23
2019-03-12T14:18:16.052Z,100140.21
2019-03-12T14:20:44.807Z,100131.19
2019-03-12T14:23:14.291Z,100113.41
2019-03-12T14:25:41.364Z,100113.62
2019-03-12T14:28:08.308Z,100106.27
2019-03-12T14:30:35.278Z,100096.44
2019-03-12T14:33:02.499Z,100094.89
2019-03-12T14:35:29.480Z,100087.28
2019-03-12T14:37:56.488Z,100072.38
2019-03-12T14:40:23.548Z,100067.97
2019-03-12T14:42:50.542Z,100059.88
2019-03-12T14:45:24.152Z,100060.13
2019-03-12T14:47:51.121Z,100048.22
2019-03-12T14:50:18.186Z,100048.66
2019-03-12T14:52:47.491Z,100032.09
2019-03-12T14:55:14.434Z,100027.66
2019-03-12T14:57:41.415Z,100024.05
2019-03-12T15:00:18.113Z,100005.83
2019-03-12T15:02:45.113Z,99996.02
2019-03-12T15:05:12.053Z,99995.38
2019-03-12T15:07:39.027Z,99982.88
2019-03-12T15:10:07.167Z,99988.70
2019-03-12T15:12:34.129Z,99978.32
2019-03-12T15:15:01.094Z,99968.14
2019-03-12T15:17:28.085Z,99959.78
2019-03-12T15:19:55.051Z,99957.98
2019-03-12T15:22:22.032Z,99947.91
2019-03-12T15:24:48.954Z,99945.62
2019-03-12T15:27:15.920Z,99935.06
2019-03-12T15:29:42.866Z,99924.79
2019-03-12T15:32:09.854Z,99914.63
2019-03-12T15:34:36.814Z,99910.56
2019-03-12T15:37:03.777Z,99905.69
2019-03-12T15:39:30.724Z,99905.23
2019-03-12T15:41:57.731Z,99899.66
2019-03-12T15:44:24.682Z,99884.16
2019-03-12T15:46:51.682Z,99874.45
2019-03-12T15:49:18.671Z,99865.14
2019-03-12T15:51:45.671Z,99852.94
2019-03-12T15:54:12.600Z,99841.08
2019-03-12T15:56:39.579Z,99835.61
2019-03-12T15:59:06.567Z,99825.73
2019-03-12T16:01:33.561Z,99824.78
2019-03-12T16:04:00.533Z,99817.44
2019-03-12T16:06:27.527Z,99803.30
2019-03-12T16:08:54.477Z,99801.31
2019-03-12T16:11:21.472Z,99798.95
2019-03-12T16:13:48.525Z,99775.95
2019-03-12T16:16:15.507Z,99768.09
2019-03-12T16:18:42.825Z,99768.09
2019-03-12T16:21:09.888Z,99759.20
2019-03-12T16:23:36.929Z,99742.80
2019-03-12T16:26:03.893Z,99733.17
2019-03-12T16:28:30.883Z,99720.34
2019-03-12T16:30:57.827Z,99705.11
2019-03-12T16:33:24.787Z,99696.68
2019-03-12T16:35:51.790Z,99686.81
2019-03-12T16:38:18.858Z,99679.02
2019-03-12T16:40:45.858Z,99677.94
2019-03-12T16:43:12.992Z,99671.41
2019-03-12T16:45:39.949Z,99668.20
2019-03-12T16:48:06.912Z,99659.45
2019-03-12T16:50:33.849Z,99660.23
2019-03-12T16:53:00.808Z,99652.43
2019-03-12T16:55:27.831Z,99641.75
2019-03-12T16:57:55.063Z,99643.24
2019-03-12T17:00:22.314Z,99638.25
2019-03-12T17:02:49.404Z,99624.63
2019-03-12T17:05:16.535Z,99610.74
2019-03-12T17:07:43.622Z,99602.53
2019-03-12T17:10:10.917Z,99597.92
2019-03-12T17:12:38.053Z,99589.87
2019-03-12T17:15:06.304Z,99586.77
2019-03-12T17:17:33.311Z,99577.70
2019-03-12T17:20:01.194Z,99568.00
2019-03-12T17:22:28.178Z,99556.09
2019-03-12T17:24:55.121Z,99546.83
2019-03-12T17:27:22.139Z,99538.66
2019-03-12T17:29:49.104Z,99516.44
2019-03-12T17:32:16.393Z,99523.97
2019-03-12T17:34:43.347Z,99523.42
2019-03-12T17:37:10.302Z,99531.02
2019-03-12T17:39:37.283Z,99533.86
2019-03-12T17:42:04.228Z,99520.47
2019-03-12T17:44:31.192Z,99507.81
2019-03-12T17:46:58.123Z,99505.59
2019-03-12T17:49:25.102Z,99502.48
2019-03-12T17:51:52.038Z,99492.39
2019-03-12T17:54:19.364Z,99488.14
2019-03-12T17:56:46.363Z,99488.09
2019-03-12T17:59:13.351Z,99474.02
2019-03-12T18:01:40.279Z,99465.69
2019-03-12T18:04:07.241Z,99467.30
2019-03-12T18:06:35.218Z,99463.61
2019-03-12T18:09:04.232Z,99468.80
2019-03-12T18:11:31.187Z,99462.19
2019-03-12T18:13:58.155Z,99447.72
2019-03-12T18:16:25.127Z,99434.55
2019-03-12T18:18:52.105Z,99427.23
2019-03-12T18:21:19.175Z,99421.83
2019-03-12T18:23:46.151Z,99416.41
2019-03-12T18:26:13.106Z,99426.00
2019-03-12T18:28:40.118Z,99416.41
2019-03-12T18:31:07.123Z,99409.77
2019-03-12T18:33:34.169Z,99398.73
2019-03-12T18:36:01.208Z,99392.13
2019-03-12T18:38:28.210Z,99388.22
2019-03-12T18:40:55.290Z,99382.11
2019-03-12T18:43:23.076Z,99369.12
2019-03-12T18:45:50.179Z,99372.69
2019-03-12T18:48:17.187Z,99363.77
2019-03-12T18:50:44.203Z,99359.80
2019-03-12T18:53:11.155Z,99359.21
2019-03-12T18:55:43.367Z,99346.47
2019-03-12T18:58:10.456Z,99345.04
2019-03-12T19:00:37.441Z,99341.54
2019-03-12T19:03:04.432Z,99327.31
2019-03-12T19:05:31.417Z,99315.16
2019-03-12T19:07:58.662Z,99310.23
2019-03-12T19:10:26.091Z,99310.36
2019-03-12T19:12:53.263Z,99318.36
2019-03-12T19:15:20.724Z,99312.55
2019-03-12T19:17:48.178Z,99312.05
2019-03-12T19:20:15.179Z,99309.05
2019-03-12T19:22:42.159Z,99301.22
2019-03-12T19:25:09.296Z,99304.59
2019-03-12T19:27:36.449Z,99302.70
2019-03-12T19:30:04.618Z,99291.67
2019-03-12T19:32:43.815Z,99294.03
2019-03-12T19:35:12.164Z,99281.32
2019-03-12T19:37:39.135Z,99269.12
2019-03-12T19:40:09.499Z,99249.41
2019-03-12T19:42:36.462Z,99249.30
2019-03-12T19:45:03.845Z,99234.86
2019-03-12T19:47:30.813Z,99230.48
2019-03-12T19:49:57.827Z,99215.89
2019-03-12T19:52:24.911Z,99212.55
2019-03-12T19:54:51.867Z,99202.58
2019-03-12T19:57:18.813Z,99207.42
2019-03-12T19:59:45.893Z,99200.22
2019-03-12T20:02:16.346Z,99188.01
2019-03-12T20:04:47.372Z,99190.84
2019-03-12T20:07:12.519Z,99189.02
2019-03-12T20:10:27.158Z,99183.72
2019-03-12T20:13:31.288Z,99187.84
2019-03-12T20:16:46.189Z,99191.68
2019-03-12T20:19:54.902Z,99187.25
2019-03-12T20:22:44.141Z,99188.36
2019-03-12T20:25:53.442Z,99193.06
2019-03-12T20:29:04.111Z,99174.94
2019-03-12T20:32:16.469Z,99168.00
2019-03-12T20:35:36.726Z,99150.32
2019-03-12T20:38:44.799Z,99146.64
2019-03-12T20:41:58.405Z,99140.95
2019-03-12T20:45:02.416Z,99146.17
2019-03-12T20:48:18.928Z,99139.55
2019-03-12T20:51:22.539Z,99138.48
2019-03-12T20:54:40.679Z,99142.40
2019-03-12T20:57:57.676Z,99142.55
2019-03-12T21:01:12.520Z,99134.47
2019-03-12T21:04:23.169Z,99130.94
2019-03-12T21:07:25.095Z,99159.23
2019-03-12T21:10:38.894Z,99151.16
2019-03-12T21:13:39.064Z,99138.86
2019-03-12T21:16:40.254Z,99135.13
2019-03-12T21:19:44.921Z,99143.61
2019-03-12T21:23:12.025Z,99133.81
2019-03-12T21:26:24.073Z,99131.45
2019-03-12T21:29:32.047Z,99127.19
2019-03-12T21:31:59.261Z,99119.39
2019-03-12T21:34:26.231Z,99110.58
2019-03-12T21:36:53.246Z,99104.28
2019-03-12T21:39:20.258Z,99109.03
2019-03-12T21:41:47.395Z,99106.23
2019-03-12T21:44:14.556Z,99093.94
2019-03-12T21:46:41.682Z,99085.81
2019-03-12T21:49:08.679Z,99076.52
2019-03-12T21:51:35.756Z,99084.52
2019-03-12T21:54:03.007Z,99061.91
2019-03-12T21:56:30.101Z,99078.69
2019-03-12T21:58:57.014Z,99070.47
2019-03-12T22:01:24.264Z,99067.31
2019-03-12T22:03:51.252Z,99072.88
2019-03-12T22:06:18.316Z,99078.82
2019-03-12T22:08:45.346Z,99084.40
2019-03-12T22:11:12.396Z,99086.36
2019-03-12T22:13:39.356Z,99106.75
2019-03-12T22:16:06.394Z,99127.61
2019-03-12T22:18:33.402Z,99141.23
2019-03-12T22:21:00.437Z,99176.10
2019-03-12T22:23:32.157Z,99190.47
2019-03-12T22:25:59.168Z,99188.66
2019-03-12T22:28:26.128Z,99232.53
2019-03-12T22:30:53.127Z,99230.41
2019-03-12T22:33:20.150Z,99259.41
2019-03-12T22:35:47.148Z,99254.37
2019-03-12T22:38:14.150Z,99276.80
2019-03-12T22:40:41.117Z,99295.45
2019-03-12T22:43:08.105Z,99297.75
2019-03-12T22:45:35.272Z,99293.39
2019-03-12T22:48:02.242Z,99306.16
2019-03-12T22:50:29.247Z,99312.55
2019-03-12T22:52:56.337Z,99316.23
2019-03-12T22:55:23.336Z,99327.34
2019-03-12T22:57:50.310Z,99339.27
2019-03-12T23:00:17.272Z,99353.92
2019-03-12T23:02:44.264Z,99372.69
2019-03-12T23:05:11.456Z,99371.10
2019-03-12T23:07:38.434Z,99379.26
2019-03-12T23:10:05.618Z,99373.94
2019-03-12T23:12:32.602Z,99384.92
2019-03-12T23:14:59.528Z,99382.99
2019-03-12T23:17:26.495Z,99389.64
2019-03-12T23:19:53.564Z,99398.95
2019-03-12T23:22:20.548Z,99405.91
2019-03-12T23:24:47.518Z,99413.35
2019-03-12T23:27:14.545Z,99411.61
2019-03-12T23:29:41.728Z,99414.52
2019-03-12T23:32:08.686Z,99420.17
2019-03-12T23:34:35.808Z,99436.96
2019-03-12T23:37:02.877Z,99435.27
2019-03-12T23:39:29.853Z,99438.34
2019-03-12T23:41:56.835Z,99448.84
2019-03-12T23:44:23.783Z,99457.79
2019-03-12T23:46:50.757Z,99464.25
2019-03-12T23:49:18.113Z,99460.19
2019-03-12T23:51:45.147Z,99466.77
2019-03-12T23:54:12.213Z,99460.06
2019-03-12T23:56:39.293Z,99473.38
2019-03-12T23:59:06.292Z,99477.13
